Time;durP1;ratioP1;P1;durP2;ratioP2;P2;SDS_P1;SDS_P2;PMS_P1;PMS_P2;Temp;Humidity;BMP_temperature;BMP_pressure;BME280_temperature;BME280_humidity;BME280_pressure;Samples;Min_cycle;Max_cycle;Signal;HPM_P1;HPM_P2
2022/08/09 00:00:52;;;;;;;;;10.25;10.25;;;;;20.98;48.29;101486.13;5076418;28;45172;-73
2022/08/09 00:03:17;;;;;;;;;9.00;9.00;;;;;20.94;48.51;101487.31;5076160;27;45259;-73
2022/08/09 00:05:43;;;;;;;;;11.00;11.00;;;;;20.89;49.04;101489.44;5076165;27;45469;-70
2022/08/09 00:08:12;;;;;;;;;10.00;10.00;;;;;20.85;48.80;101490.63;5075634;27;45456;-72
2022/08/09 00:10:38;;;;;;;;;11.75;11.75;;;;;20.81;49.32;101494.47;5075518;27;45265;-77
2022/08/09 00:13:05;;;;;;;;;12.00;12.00;;;;;20.76;49.53;101496.56;5074327;27;45279;-72
2022/08/09 00:15:31;;;;;;;;;9.00;9.00;;;;;20.71;49.26;101500.44;5076045;28;45222;-76
2022/08/09 00:17:56;;;;;;;;;11.00;11.00;;;;;20.69;49.24;101499.69;5075762;27;45332;-69
2022/08/09 00:20:21;;;;;;;;;9.25;9.25;;;;;20.61;49.81;101491.28;5075784;27;45314;-73
2022/08/09 00:22:47;;;;;;;;;11.50;11.50;;;;;20.61;49.50;101493.97;5076062;27;45429;-71
2022/08/09 00:25:13;;;;;;;;;11.00;11.00;;;;;20.57;49.54;101495.13;5075784;27;45213;-75
2022/08/09 00:27:38;;;;;;;;;7.75;7.75;;;;;20.50;50.04;101481.34;5075425;27;46402;-72
2022/08/09 00:30:04;;;;;;;;;9.25;9.25;;;;;20.46;50.26;101485.19;5075127;27;45250;-71
2022/08/09 00:32:29;;;;;;;;;9.50;9.50;;;;;20.40;50.15;101477.59;5075119;28;45314;-75
2022/08/09 00:34:55;;;;;;;;;10.75;9.75;;;;;20.39;50.35;101470.53;5075973;27;45447;-69
2022/08/09 00:37:20;;;;;;;;;8.75;8.75;;;;;20.36;50.49;101479.59;5074969;27;46522;-70
2022/08/09 00:39:45;;;;;;;;;10.25;10.25;;;;;20.33;50.66;101465.63;5073865;27;45377;-68
2022/08/09 00:42:11;;;;;;;;;10.75;10.75;;;;;20.29;50.70;101470.28;5074306;27;45333;-70
2022/08/09 00:44:36;;;;;;;;;8.00;8.00;;;;;20.24;50.95;101475.97;5075797;27;45378;-74
2022/08/09 00:47:02;;;;;;;;;8.00;8.00;;;;;20.19;50.51;101480.75;5075071;27;46573;-71
2022/08/09 00:49:27;;;;;;;;;8.00;8.00;;;;;20.17;51.03;101476.47;5075636;27;45359;-69
2022/08/09 00:51:55;;;;;;;;;8.50;8.50;;;;;20.15;50.74;101479.25;5075238;27;45434;-72
2022/08/09 00:54:20;;;;;;;;;9.00;9.00;;;;;20.13;51.36;101478.47;5075424;27;45594;-71
2022/08/09 00:56:46;;;;;;;;;8.50;8.50;;;;;20.13;51.19;101487.34;5075179;27;46326;-76
2022/08/09 00:59:11;;;;;;;;;8.00;8.00;;;;;20.11;51.52;101483.94;5075061;27;45301;-71
2022/08/09 01:01:39;;;;;;;;;9.00;9.00;;;;;20.04;51.68;101473.75;5075055;27;45288;-71
2022/08/09 01:04:24;;;;;;;;;8.25;6.00;;;;;20.02;51.52;101483.66;5075352;27;45391;-72
2022/08/09 01:07:02;;;;;;;;;9.00;9.00;;;;;19.94;51.83;101482.34;5074879;27;45689;-72
2022/08/09 01:09:52;;;;;;;;;8.75;8.75;;;;;19.89;52.15;101481.78;5075321;27;45445;-72
2022/08/09 01:12:39;;;;;;;;;8.75;8.75;;;;;19.83;52.86;101472.38;5076809;27;45212;-72
2022/08/09 01:15:08;;;;;;;;;10.25;10.25;;;;;19.78;52.97;101481.63;5078767;27;45390;-71
2022/08/09 01:17:43;;;;;;;;;5.75;5.75;;;;;19.70;52.52;101474.97;5075589;27;46451;-72
2022/08/09 01:20:35;;;;;;;;;7.50;7.50;;;;;19.67;53.13;101469.00;5073150;28;45403;-74
2022/08/09 01:23:03;;;;;;;;;6.50;6.50;;;;;19.62;53.81;101477.28;5073788;27;45631;-71
2022/08/09 01:25:35;;;;;;;;;7.75;7.75;;;;;19.58;53.84;101481.09;5075242;27;45397;-70
2022/08/09 01:28:02;;;;;;;;;8.25;8.25;;;;;19.55;53.53;101483.97;5074776;28;45566;-75
2022/08/09 01:30:30;;;;;;;;;10.25;10.25;;;;;19.50;54.41;101478.91;5074851;27;45339;-73
2022/08/09 01:32:57;;;;;;;;;10.00;10.00;;;;;19.46;54.22;101476.56;5074929;28;45403;-72
2022/08/09 01:35:34;;;;;;;;;9.50;9.50;;;;;19.42;54.47;101479.41;5074773;27;45302;-73
2022/08/09 01:38:05;;;;;;;;;9.00;9.00;;;;;19.37;54.69;101468.19;5074945;28;45985;-69
2022/08/09 01:40:32;;;;;;;;;12.00;12.00;;;;;19.36;54.27;101470.94;5075044;27;45301;-71
2022/08/09 01:42:59;;;;;;;;;11.00;11.00;;;;;19.34;54.80;101467.50;5073675;27;45362;-71
2022/08/09 01:45:26;;;;;;;;;10.00;10.00;;;;;19.31;54.75;101462.38;5074748;27;45288;-71
2022/08/09 01:47:53;;;;;;;;;8.25;8.00;;;;;19.29;54.79;101474.94;5074360;27;45359;-73
2022/08/09 01:50:22;;;;;;;;;11.25;11.25;;;;;19.25;54.91;101463.63;5074357;28;45253;-70
2022/08/09 01:52:49;;;;;;;;;10.25;10.25;;;;;19.21;55.18;101473.63;5074559;27;45445;-69
2022/08/09 01:55:17;;;;;;;;;9.00;9.00;;;;;19.20;55.07;101471.91;5076233;28;45605;-69
2022/08/09 01:57:45;;;;;;;;;10.75;10.75;;;;;19.18;55.51;101468.47;5077446;27;46799;-70
2022/08/09 02:00:13;;;;;;;;;10.25;10.25;;;;;19.16;55.92;101470.38;5077463;27;45247;-71
2022/08/09 02:02:45;;;;;;;;;9.75;9.75;;;;;19.11;55.33;101459.16;5077610;27;45338;-71
2022/08/09 02:05:13;;;;;;;;;11.75;11.75;;;;;19.08;55.96;101465.50;5078044;27;45185;-74
2022/08/09 02:07:50;;;;;;;;;12.00;12.00;;;;;19.06;56.05;101471.91;5077573;27;45560;-75
2022/08/09 02:10:23;;;;;;;;;11.50;11.50;;;;;18.97;56.50;101466.19;5077407;27;45483;-71
2022/08/09 02:12:49;;;;;;;;;14.00;14.00;;;;;18.94;56.48;101462.81;5077503;27;45244;-70
2022/08/09 02:15:18;;;;;;;;;11.75;11.00;;;;;18.91;56.84;101465.66;5077732;27;45403;-71
2022/08/09 02:17:46;;;;;;;;;11.25;11.25;;;;;18.88;56.95;101464.06;5077091;27;45437;-70
2022/08/09 02:20:12;;;;;;;;;9.50;9.50;;;;;18.82;56.83;101459.09;5075881;27;45359;-70
2022/08/09 02:22:42;;;;;;;;;9.50;9.50;;;;;18.85;56.62;101469.59;5077397;27;45254;-70
2022/08/09 02:25:16;;;;;;;;;9.25;9.25;;;;;18.79;57.25;101462.81;5077423;27;45539;-70
2022/08/09 02:27:46;;;;;;;;;11.00;11.00;;;;;18.79;57.02;101470.81;5077057;27;45439;-71
2022/08/09 02:30:13;;;;;;;;;9.25;9.25;;;;;18.79;57.19;101476.13;5077270;27;45312;-70
2022/08/09 02:32:43;;;;;;;;;10.75;10.75;;;;;18.73;57.27;101463.19;5059043;28;45337;-70
2022/08/09 02:35:17;;;;;;;;;11.00;11.00;;;;;18.67;57.56;101450.22;5076221;27;45346;-71
2022/08/09 02:37:46;;;;;;;;;12.00;12.00;;;;;18.69;57.73;101464.31;5076993;28;46726;-72
2022/08/09 02:40:15;;;;;;;;;10.75;10.75;;;;;18.67;58.15;101461.75;5077167;27;45260;-71
2022/08/09 02:42:43;;;;;;;;;11.00;11.00;;;;;18.65;57.49;101460.13;5077019;28;45412;-71
2022/08/09 02:45:12;;;;;;;;;9.75;9.75;;;;;18.64;58.12;101461.06;5077227;27;45253;-70
2022/08/09 02:47:40;;;;;;;;;10.00;10.00;;;;;18.57;58.10;101447.28;5076655;27;45278;-70
2022/08/09 02:50:13;;;;;;;;;9.00;9.00;;;;;18.59;57.91;101452.50;5076705;27;45484;-69
2022/08/09 02:52:58;;;;;;;;;11.25;11.25;;;;;18.55;58.26;101449.16;5077110;27;45286;-71
2022/08/09 02:55:25;;;;;;;;;6.50;6.00;;;;;18.55;58.33;101459.81;5075751;27;45324;-71
2022/08/09 02:57:52;;;;;;;;;9.00;9.00;;;;;18.49;58.72;101453.06;5076654;27;46370;-70
2022/08/09 03:00:18;;;;;;;;;10.50;10.50;;;;;18.49;58.71;101452.19;5076666;27;45297;-69
2022/08/09 03:02:47;;;;;;;;;8.25;8.25;;;;;18.45;58.56;101445.31;5076676;27;45456;-70
2022/08/09 03:05:14;;;;;;;;;10.00;10.00;;;;;18.40;59.04;101445.63;5076217;27;45386;-71
2022/08/09 03:07:41;;;;;;;;;11.00;11.00;;;;;18.39;58.95;101459.88;5076615;28;45930;-70
2022/08/09 03:10:08;;;;;;;;;9.75;9.75;;;;;18.33;59.49;101450.44;5076712;28;45359;-71
2022/08/09 03:12:36;;;;;;;;;10.25;10.25;;;;;18.31;59.15;101452.34;5076747;27;45533;-70
2022/08/09 03:15:02;;;;;;;;;12.00;12.00;;;;;18.28;59.14;101452.53;5077071;27;45341;-70
2022/08/09 03:17:28;;;;;;;;;11.25;11.25;;;;;18.24;60.27;101456.31;5076209;27;46300;-69
2022/08/09 03:19:57;;;;;;;;;10.25;10.25;;;;;18.22;59.85;101463.53;5076658;27;45648;-70
2022/08/09 03:22:25;;;;;;;;;11.50;10.25;;;;;18.17;59.70;101458.50;5076524;27;45355;-70
2022/08/09 03:24:50;;;;;;;;;10.75;10.75;;;;;18.13;60.04;101458.75;5075563;27;45379;-71
2022/08/09 03:27:16;;;;;;;;;11.00;11.00;;;;;18.08;60.27;101451.03;5076208;27;45655;-70
2022/08/09 03:29:43;;;;;;;;;10.75;10.75;;;;;18.07;60.10;101454.66;5076177;27;45240;-71
2022/08/09 03:32:09;;;;;;;;;8.00;8.00;;;;;18.06;60.19;101458.25;5092101;27;45278;-71
2022/08/09 03:34:34;;;;;;;;;12.00;12.00;;;;;18.03;61.01;101453.13;5076831;27;45500;-71
2022/08/09 03:37:00;;;;;;;;;9.50;9.50;;;;;17.99;60.59;101456.84;5076167;28;46627;-71
2022/08/09 03:39:26;;;;;;;;;10.75;10.50;;;;;17.96;60.87;101457.88;5076178;27;45291;-71
2022/08/09 03:41:53;;;;;;;;;10.00;10.00;;;;;17.98;60.53;101461.31;5076675;27;45512;-72
2022/08/09 03:44:20;;;;;;;;;10.75;10.75;;;;;17.96;60.73;101455.22;5076359;27;45730;-73
2022/08/09 03:46:45;;;;;;;;;11.25;11.25;;;;;17.96;60.46;101455.22;5076032;27;45376;-72
2022/08/09 03:49:11;;;;;;;;;10.50;10.50;;;;;17.95;60.64;101456.19;5075981;27;45355;-75
2022/08/09 03:51:40;;;;;;;;;10.75;10.75;;;;;17.96;60.38;101460.56;5075370;27;45351;-73
2022/08/09 03:54:07;;;;;;;;;9.75;9.75;;;;;17.90;60.97;101456.41;5075246;28;45461;-71
2022/08/09 03:56:33;;;;;;;;;12.50;12.50;;;;;17.90;61.11;101456.41;5076962;27;46247;-73
2022/08/09 03:58:58;;;;;;;;;12.75;12.25;;;;;17.86;61.23;101444.25;5079353;27;45310;-76
2022/08/09 04:01:24;;;;;;;;;11.00;11.00;;;;;17.85;61.20;101447.84;5080503;27;45330;-70
2022/08/09 04:03:51;;;;;;;;;10.00;10.00;;;;;17.83;60.89;101449.75;5076648;28;45472;-73
2022/08/09 04:06:17;;;;;;;;;10.00;10.00;;;;;17.82;61.16;101448.03;5076263;28;45364;-72
2022/08/09 04:08:43;;;;;;;;;11.75;11.75;;;;;17.81;61.60;101457.81;5076515;27;45303;-73
2022/08/09 04:11:10;;;;;;;;;10.25;10.25;;;;;17.79;61.25;101458.84;5074959;27;45391;-70
2022/08/09 04:13:35;;;;;;;;;10.50;10.50;;;;;17.76;62.27;101461.69;5076610;27;45413;-71
2022/08/09 04:16:01;;;;;;;;;9.50;9.50;;;;;17.76;61.84;101461.69;5075890;28;46461;-71
2022/08/09 04:18:26;;;;;;;;;10.50;10.50;;;;;17.75;61.71;101458.19;5075990;27;45435;-71
2022/08/09 04:20:51;;;;;;;;;10.00;10.00;;;;;17.72;61.88;101463.66;5075667;27;45325;-69
2022/08/09 04:23:17;;;;;;;;;9.75;9.75;;;;;17.73;61.66;101467.19;5075908;27;45537;-71
2022/08/09 04:25:42;;;;;;;;;12.25;12.25;;;;;17.67;61.78;101461.25;5075375;27;45445;-73
2022/08/09 04:28:07;;;;;;;;;12.25;12.25;;;;;17.67;62.23;101463.91;5075540;27;45432;-74
2022/08/09 04:30:33;;;;;;;;;11.00;11.00;;;;;17.65;62.08;101464.97;5075659;27;45414;-74
2022/08/09 04:33:01;;;;;;;;;10.50;10.50;;;;;17.62;62.23;101467.78;5075699;27;45537;-73
2022/08/09 04:35:26;;;;;;;;;11.75;10.25;;;;;17.61;62.40;101474.06;5074168;27;46511;-70
2022/08/09 04:37:52;;;;;;;;;12.00;12.00;;;;;17.58;62.80;101476.88;5075011;27;45472;-70
2022/08/09 04:40:17;;;;;;;;;12.25;12.25;;;;;17.52;62.63;101472.75;5075401;28;45287;-70
2022/08/09 04:42:42;;;;;;;;;12.00;12.00;;;;;17.53;62.57;101477.13;5075354;27;45328;-71
2022/08/09 04:45:08;;;;;;;;;9.75;9.75;;;;;17.44;62.70;101474.97;5075451;27;46145;-71
2022/08/09 04:47:34;;;;;;;;;9.00;9.00;;;;;17.51;62.75;101490.53;5075221;27;45176;-70
2022/08/09 04:49:59;;;;;;;;;10.00;10.00;;;;;17.47;62.60;101473.00;5075447;27;45305;-71
2022/08/09 04:52:26;;;;;;;;;10.25;10.25;;;;;17.52;62.51;101476.28;5075385;27;45279;-70
2022/08/09 04:54:52;;;;;;;;;8.00;8.00;;;;;17.52;62.63;101483.41;5075043;27;46460;-72
2022/08/09 04:57:18;;;;;;;;;11.50;11.50;;;;;17.54;62.44;101484.16;5074796;27;45311;-71
2022/08/09 04:59:44;;;;;;;;;10.00;10.00;;;;;17.52;62.69;101481.59;5075202;27;45453;-71
2022/08/09 05:02:09;;;;;;;;;11.50;11.50;;;;;17.52;62.67;101486.06;5073954;27;45343;-76
2022/08/09 05:04:35;;;;;;;;;9.25;9.25;;;;;17.52;62.86;101489.59;5073296;27;46528;-70
2022/08/09 05:07:00;;;;;;;;;10.00;10.00;;;;;17.54;62.91;101489.50;5075442;27;45236;-70
2022/08/09 05:09:29;;;;;;;;;10.00;10.00;;;;;17.55;62.82;101487.69;5075205;27;45471;-71
2022/08/09 05:11:54;;;;;;;;;12.75;12.75;;;;;17.54;63.04;101491.31;5075241;27;45641;-70
2022/08/09 05:14:19;;;;;;;;;9.25;9.25;;;;;17.54;62.99;101489.50;5074387;27;45505;-70
2022/08/09 05:16:45;;;;;;;;;10.00;10.00;;;;;17.55;62.67;101482.38;5074943;27;45307;-70
2022/08/09 05:19:13;;;;;;;;;10.00;10.00;;;;;17.58;62.60;101485.72;5075254;27;45411;-71
2022/08/09 05:21:39;;;;;;;;;8.00;8.00;;;;;17.59;63.05;101491.91;5075632;27;45576;-70
2022/08/09 05:24:05;;;;;;;;;10.25;10.25;;;;;17.58;62.69;101488.38;5074526;27;46350;-71
2022/08/09 05:26:31;;;;;;;;;10.00;10.00;;;;;17.57;62.72;101484.00;5075024;27;45353;-72
2022/08/09 05:28:56;;;;;;;;;11.00;11.00;;;;;17.61;62.54;101493.53;5076905;27;45244;-72
2022/08/09 05:31:22;;;;;;;;;12.00;12.00;;;;;17.59;62.61;101484.78;5079270;27;45496;-71
2022/08/09 05:33:47;;;;;;;;;11.50;11.50;;;;;17.62;62.43;101489.06;5078514;27;46059;-72
2022/08/09 05:36:13;;;;;;;;;10.75;10.75;;;;;17.63;62.67;101496.13;5078730;27;45239;-70
2022/08/09 05:38:38;;;;;;;;;10.75;10.75;;;;;17.62;62.72;101495.25;5079112;27;45334;-72
2022/08/09 05:41:03;;;;;;;;;9.50;9.50;;;;;17.69;62.89;101501.09;5078982;27;45671;-70
2022/08/09 05:43:28;;;;;;;;;11.50;11.50;;;;;17.71;62.93;101504.53;5078831;27;46335;-77
2022/08/09 05:45:54;;;;;;;;;11.00;11.00;;;;;17.71;62.37;101499.19;5079161;27;45259;-73
2022/08/09 05:48:19;;;;;;;;;10.00;9.25;;;;;17.77;62.26;101505.97;5079318;27;45357;-72
2022/08/09 05:50:45;;;;;;;;;13.50;13.50;;;;;17.76;62.64;101515.78;5079279;27;45627;-76
2022/08/09 05:53:11;;;;;;;;;10.25;10.25;;;;;17.78;62.50;101511.22;5079310;27;45423;-72
2022/08/09 05:55:36;;;;;;;;;10.75;10.75;;;;;17.82;62.47;101519.88;5079060;27;45466;-78
2022/08/09 05:58:02;;;;;;;;;10.50;10.50;;;;;17.80;62.33;101514.66;5078398;27;45480;-70
2022/08/09 06:00:30;;;;;;;;;11.50;11.50;;;;;17.81;62.17;101513.72;5078477;27;45421;-73
2022/08/09 06:03:00;;;;;;;;;12.00;12.00;;;;;17.81;62.80;101513.72;5079409;27;45725;-73
2022/08/09 06:05:30;;;;;;;;;12.25;12.25;;;;;17.82;62.47;101509.22;5077877;27;45288;-72
2022/08/09 06:07:55;;;;;;;;;9.75;9.75;;;;;17.88;62.20;101516.03;5077536;27;45253;-71
2022/08/09 06:10:36;;;;;;;;;12.75;12.75;;;;;17.92;62.40;101514.91;5077800;27;45450;-76
2022/08/09 06:13:05;;;;;;;;;12.00;12.00;;;;;17.93;61.86;101511.28;5077562;27;45386;-72
2022/08/09 06:15:31;;;;;;;;;10.25;10.25;;;;;18.00;61.98;101518.03;5076325;27;45427;-75
2022/08/09 06:17:56;;;;;;;;;11.00;11.00;;;;;18.04;61.71;101521.38;5076750;28;45287;-73
2022/08/09 06:20:22;;;;;;;;;12.75;12.75;;;;;18.06;62.09;101516.81;5078581;27;45219;-77
2022/08/09 06:22:47;;;;;;;;;10.25;10.25;;;;;18.11;61.46;101530.75;5077853;27;45320;-71
2022/08/09 06:25:12;;;;;;;;;12.75;12.75;;;;;18.21;61.18;101531.94;5077935;27;45303;-70
2022/08/09 06:27:37;;;;;;;;;13.25;13.25;;;;;18.30;60.98;101530.50;5079531;27;45239;-76
2022/08/09 06:30:03;;;;;;;;;9.00;9.00;;;;;18.40;60.66;101541.50;5081006;27;45552;-76
2022/08/09 06:32:28;;;;;;;;;10.25;10.25;;;;;18.45;60.56;101547.44;5079644;27;45339;-74
2022/08/09 06:34:57;;;;;;;;;12.00;12.00;;;;;18.51;60.45;101547.06;5080132;27;45268;-80
2022/08/09 06:37:23;;;;;;;;;11.00;11.00;;;;;18.53;60.17;101536.31;5080894;27;45360;-77
2022/08/09 06:39:49;;;;;;;;;9.25;9.25;;;;;18.61;60.24;101549.19;5080364;27;45991;-72
2022/08/09 06:42:14;;;;;;;;;8.75;8.75;;;;;18.71;60.02;101554.84;5080264;27;50804;-72
2022/08/09 06:44:39;;;;;;;;;12.00;12.00;;;;;18.78;59.70;101554.38;5078043;27;45306;-72
2022/08/09 06:47:05;;;;;;;;;10.75;10.75;;;;;18.84;59.69;101566.50;5080624;27;45241;-71
2022/08/09 06:49:30;;;;;;;;;11.00;11.00;;;;;18.90;59.09;101549.25;5078272;27;45161;-72
2022/08/09 06:51:55;;;;;;;;;11.25;11.25;;;;;18.90;59.60;101554.59;5079884;27;45382;-73
2022/08/09 06:54:21;;;;;;;;;10.00;10.00;;;;;18.92;59.22;101548.22;5081494;27;45398;-72
2022/08/09 06:56:47;;;;;;;;;13.25;13.25;;;;;19.00;58.80;101553.13;5081346;27;45370;-70
2022/08/09 06:59:12;;;;;;;;;10.50;10.50;;;;;19.08;58.68;101558.84;5081122;27;45520;-76
2022/08/09 07:01:38;;;;;;;;;12.00;12.00;;;;;19.14;58.33;101557.63;5080325;27;45287;-72
2022/08/09 07:04:03;;;;;;;;;12.75;12.75;;;;;19.18;58.55;101553.81;5084176;27;45371;-72
2022/08/09 07:06:28;;;;;;;;;11.75;11.75;;;;;19.27;58.41;101558.59;5086184;27;45393;-70
2022/08/09 07:08:54;;;;;;;;;12.25;12.25;;;;;19.33;57.85;101554.69;5087435;27;45512;-73
2022/08/09 07:11:19;;;;;;;;;11.50;11.50;;;;;19.40;58.01;101553.34;5085790;27;46340;-71
2022/08/09 07:13:45;;;;;;;;;9.00;9.00;;;;;19.48;57.25;101552.84;5080621;27;45370;-70
2022/08/09 07:16:10;;;;;;;;;12.00;12.00;;;;;19.64;57.48;101557.25;5077559;27;45290;-69
2022/08/09 07:18:35;;;;;;;;;10.75;10.75;;;;;19.73;57.04;101558.47;5076986;27;45244;-70
2022/08/09 07:21:00;;;;;;;;;12.75;12.75;;;;;19.77;56.79;101560.88;5076585;27;45360;-72
2022/08/09 07:23:26;;;;;;;;;12.25;11.25;;;;;19.80;56.91;101560.66;5076308;27;45301;-72
2022/08/09 07:25:51;;;;;;;;;9.50;9.00;;;;;19.91;56.86;101553.81;5076615;27;45405;-70
2022/08/09 07:28:17;;;;;;;;;15.75;15.75;;;;;20.03;56.46;101561.03;5077022;27;45251;-70
2022/08/09 07:30:42;;;;;;;;;11.25;11.25;;;;;20.07;55.78;101559.00;5075883;27;45811;-72
2022/08/09 07:33:08;;;;;;;;;10.00;10.00;;;;;20.10;55.50;101562.34;5075908;27;45500;-72
2022/08/09 07:35:33;;;;;;;;;9.50;9.50;;;;;20.18;55.87;101556.50;5075899;27;45341;-71
2022/08/09 07:37:58;;;;;;;;;11.50;11.50;;;;;20.31;55.12;101558.38;5074510;27;45339;-72
2022/08/09 07:40:24;;;;;;;;;12.25;12.25;;;;;20.40;55.40;101563.09;5075819;27;47695;-71
2022/08/09 07:42:59;;;;;;;;;9.75;9.75;;;;;20.49;54.91;101557.16;5076464;27;45385;-71
2022/08/09 07:45:28;;;;;;;;;8.25;8.25;;;;;20.54;54.71;101557.69;5076156;27;45352;-72
2022/08/09 07:47:55;;;;;;;;;11.50;11.50;;;;;20.65;54.37;101562.28;5074860;27;45620;-72
2022/08/09 07:50:22;;;;;;;;;9.75;9.75;;;;;20.67;54.43;101557.69;5075811;27;45374;-70
2022/08/09 07:52:48;;;;;;;;;7.00;7.00;;;;;20.75;53.76;101565.22;5075657;27;45365;-71
2022/08/09 07:55:14;;;;;;;;;10.00;10.00;;;;;20.85;54.09;101555.63;5075457;27;45254;-74
2022/08/09 07:57:39;;;;;;;;;11.25;11.25;;;;;20.99;53.46;101557.38;5076007;27;45427;-71
2022/08/09 08:00:06;;;;;;;;;8.25;8.25;;;;;21.10;53.22;101555.78;5074962;27;46468;-74
2022/08/09 08:02:31;;;;;;;;;14.25;14.25;;;;;21.15;52.57;101556.31;5075406;27;45260;-77
2022/08/09 08:04:57;;;;;;;;;10.00;10.00;;;;;21.25;52.74;101565.41;5075475;27;45357;-75
2022/08/09 08:07:22;;;;;;;;;9.00;9.00;;;;;21.35;52.36;101568.31;5077574;27;45322;-73
2022/08/09 08:09:47;;;;;;;;;11.50;10.75;;;;;21.41;51.90;101559.84;5075665;27;45634;-76
2022/08/09 08:12:13;;;;;;;;;10.50;10.50;;;;;21.51;51.80;101561.84;5075388;27;45393;-77
2022/08/09 08:14:38;;;;;;;;;11.00;11.00;;;;;21.56;51.55;101571.25;5075503;27;45998;-74
2022/08/09 08:17:04;;;;;;;;;8.75;8.75;;;;;21.61;51.79;101576.28;5074571;28;45308;-73
2022/08/09 08:19:29;;;;;;;;;7.75;7.75;;;;;21.69;51.43;101573.94;5075622;27;45495;-76
2022/08/09 08:21:54;;;;;;;;;10.25;10.25;;;;;21.74;51.36;101568.28;5075206;27;45418;-71
2022/08/09 08:24:20;;;;;;;;;9.25;9.25;;;;;21.86;50.88;101572.75;5076279;27;45359;-73
2022/08/09 08:26:45;;;;;;;;;11.00;11.00;;;;;22.02;50.80;101575.13;5075813;27;45294;-73
2022/08/09 08:29:11;;;;;;;;;7.00;7.00;;;;;22.17;50.34;101577.66;5075312;27;46360;-70
2022/08/09 08:31:36;;;;;;;;;10.00;9.00;;;;;22.28;49.61;101580.44;5075151;27;45336;-69
2022/08/09 08:34:01;;;;;;;;;11.25;11.25;;;;;22.35;49.60;101579.97;5075201;27;45326;-71
2022/08/09 08:36:27;;;;;;;;;10.25;10.25;;;;;22.44;49.29;101582.78;5075164;27;45628;-69
2022/08/09 08:38:52;;;;;;;;;12.00;12.00;;;;;22.51;49.08;101575.19;5074715;27;47856;-69
2022/08/09 08:41:19;;;;;;;;;6.75;6.75;;;;;22.62;49.03;101579.72;5075371;28;45280;-72
2022/08/09 08:43:44;;;;;;;;;9.00;9.00;;;;;22.72;48.79;101577.22;5075325;27;45352;-75
2022/08/09 08:46:11;;;;;;;;;10.00;9.00;;;;;22.80;47.91;101579.28;5074873;27;45408;-72
2022/08/09 08:48:40;;;;;;;;;8.00;8.00;;;;;22.88;48.02;101577.75;5075254;28;45467;-73
2022/08/09 08:51:05;;;;;;;;;6.50;6.50;;;;;22.98;47.79;101574.34;5074942;28;45485;-76
2022/08/09 08:53:31;;;;;;;;;7.75;7.75;;;;;23.10;47.33;101576.06;5074865;27;45370;-74
2022/08/09 08:55:57;;;;;;;;;7.00;7.00;;;;;23.19;47.66;101571.84;5075408;27;45399;-72
2022/08/09 08:58:25;;;;;;;;;7.75;7.75;;;;;23.30;46.46;101576.38;5074925;27;46267;-70
2022/08/09 09:00:50;;;;;;;;;8.75;8.75;;;;;23.36;46.97;101575.06;5075014;28;45245;-70
2022/08/09 09:03:17;;;;;;;;;8.00;8.00;;;;;23.46;46.62;101571.53;5075101;27;45225;-74
2022/08/09 09:05:44;;;;;;;;;7.00;7.00;;;;;23.61;46.69;101571.28;5078467;27;45246;-73
2022/08/09 09:08:13;;;;;;;;;5.00;5.00;;;;;23.74;46.01;101571.13;5078296;27;45623;-70
2022/08/09 09:10:42;;;;;;;;;7.50;7.50;;;;;23.85;45.49;101573.78;5078352;27;45472;-70
2022/08/09 09:13:08;;;;;;;;;6.25;6.25;;;;;23.91;45.90;101573.31;5077331;28;45437;-73
2022/08/09 09:15:33;;;;;;;;;6.25;6.25;;;;;24.00;45.59;101576.25;5079119;27;45207;-70
2022/08/09 09:17:59;;;;;;;;;10.25;10.25;;;;;24.10;45.53;101573.66;5078007;27;45560;-70
2022/08/09 09:20:34;;;;;;;;;8.25;8.25;;;;;24.18;44.73;101568.50;5080004;27;45330;-70
2022/08/09 09:23:00;;;;;;;;;9.00;9.00;;;;;24.25;45.00;101575.06;5080599;27;45483;-73
2022/08/09 09:25:40;;;;;;;;;7.00;7.00;;;;;24.33;44.87;101569.91;5079466;27;45517;-72
2022/08/09 09:28:07;;;;;;;;;8.00;8.00;;;;;24.49;44.48;101561.41;5076942;27;45962;-71
2022/08/09 09:30:34;;;;;;;;;6.75;6.75;;;;;24.61;44.03;101567.59;5078510;27;45246;-74
2022/08/09 09:33:11;;;;;;;;;10.00;10.00;;;;;24.69;43.42;101569.63;5078053;27;45192;-69
2022/08/09 09:36:00;;;;;;;;;19.50;19.00;;;;;24.81;43.20;101570.47;5078037;27;45334;-68
2022/08/09 09:38:42;;;;;;;;;8.75;8.50;;;;;24.87;43.14;101561.88;5077686;27;45474;-69
2022/08/09 09:41:07;;;;;;;;;8.75;8.75;;;;;24.92;42.38;101562.31;5076313;27;45304;-70
2022/08/09 09:43:33;;;;;;;;;8.00;8.00;;;;;25.00;43.01;101553.59;5077984;27;45368;-70
2022/08/09 09:46:01;;;;;;;;;9.50;9.00;;;;;25.11;42.04;101562.59;5078391;27;45530;-72
2022/08/09 09:48:28;;;;;;;;;8.75;8.75;;;;;25.16;41.87;101565.72;5077911;27;47054;-70
2022/08/09 09:50:54;;;;;;;;;8.25;8.25;;;;;25.20;41.03;101562.63;5078137;27;45413;-70
2022/08/09 09:53:23;;;;;;;;;7.00;7.00;;;;;25.24;41.14;101553.28;5078070;27;45276;-71
2022/08/09 09:56:01;;;;;;;;;8.00;8.00;;;;;25.32;41.45;101554.44;5077812;27;45282;-70
2022/08/09 09:58:56;;;;;;;;;12.50;12.50;;;;;25.39;40.22;101555.59;5077542;27;45273;-70
2022/08/09 10:01:21;;;;;;;;;8.00;8.00;;;;;25.46;40.50;101555.97;5072783;27;45503;-70
2022/08/09 10:03:51;;;;;;;;;11.25;11.25;;;;;25.51;41.07;101553.72;5077952;28;45294;-69
2022/08/09 10:06:17;;;;;;;;;12.50;10.75;;;;;25.52;40.33;101550.03;5078294;27;45386;-72
2022/08/09 10:08:45;;;;;;;;;7.25;7.25;;;;;25.62;40.79;101545.53;5077471;27;45353;-73
2022/08/09 10:11:24;;;;;;;;;8.75;8.75;;;;;25.73;40.56;101544.56;5078976;27;45290;-72
2022/08/09 10:13:50;;;;;;;;;9.00;9.00;;;;;25.86;40.46;101543.47;5077862;27;45465;-70
2022/08/09 10:16:27;;;;;;;;;10.25;10.25;;;;;26.00;40.24;101540.38;5077553;27;45333;-75
2022/08/09 10:18:54;;;;;;;;;7.00;7.00;;;;;26.13;39.90;101542.81;5076777;27;45429;-73
2022/08/09 10:21:21;;;;;;;;;9.50;9.50;;;;;26.28;39.64;101543.25;5078541;27;45405;-73
2022/08/09 10:23:47;;;;;;;;;8.25;8.25;;;;;26.40;39.56;101546.66;5077878;27;45345;-72
2022/08/09 10:26:13;;;;;;;;;7.25;7.25;;;;;26.53;39.43;101535.59;5077806;27;45253;-74
2022/08/09 10:28:41;;;;;;;;;7.75;7.75;;;;;26.62;38.72;101542.81;5077466;27;46936;-72
2022/08/09 10:31:07;;;;;;;;;8.50;8.50;;;;;26.67;38.25;101539.66;5077472;27;45332;-70
2022/08/09 10:33:34;;;;;;;;;9.25;9.25;;;;;26.71;38.24;101537.56;5077505;27;45468;-73
2022/08/09 10:36:03;;;;;;;;;9.00;9.00;;;;;26.74;38.35;101540.78;5076987;27;45584;-73
2022/08/09 10:38:29;;;;;;;;;7.00;7.00;;;;;26.80;37.84;101536.69;5077214;27;46379;-71
2022/08/09 10:40:54;;;;;;;;;11.50;11.50;;;;;26.87;37.74;101543.22;5077356;27;45386;-70
2022/08/09 10:43:19;;;;;;;;;10.00;10.00;;;;;26.92;37.90;101535.53;5077293;27;45407;-74
2022/08/09 10:45:51;;;;;;;;;14.00;13.75;;;;;27.05;37.55;101528.97;5075822;27;45265;-71
2022/08/09 10:48:30;;;;;;;;;8.00;8.00;;;;;27.11;36.75;101533.78;5075828;27;46901;-72
2022/08/09 10:51:10;;;;;;;;;9.50;9.50;;;;;27.11;36.08;101534.63;5076922;27;45380;-70
2022/08/09 10:54:11;;;;;;;;;10.50;10.50;;;;;27.21;36.33;101531.88;5077170;27;45364;-70
2022/08/09 10:56:38;;;;;;;;;9.00;9.00;;;;;27.26;36.23;101524.19;5064528;27;45360;-69
2022/08/09 10:59:36;;;;;;;;;10.25;10.25;;;;;27.38;35.85;101524.84;5076424;27;46627;-70
2022/08/09 11:02:04;;;;;;;;;10.00;10.00;;;;;27.48;36.27;101526.66;5064149;27;45437;-70
2022/08/09 11:04:31;;;;;;;;;10.75;10.25;;;;;27.56;35.33;101524.91;5076630;27;45456;-70
2022/08/09 11:06:59;;;;;;;;;26.75;26.25;;;;;27.66;35.54;101529.44;5077210;27;45331;-70
2022/08/09 11:09:37;;;;;;;;;16.75;16.75;;;;;27.73;35.32;101517.03;5077057;27;46766;-69
2022/08/09 11:12:11;;;;;;;;;5.00;5.00;;;;;27.73;34.75;101527.84;5076768;27;45260;-69
2022/08/09 11:14:40;;;;;;;;;7.75;7.75;;;;;27.72;34.64;101519.84;5076580;27;45310;-71
2022/08/09 11:17:33;;;;;;;;;13.25;13.00;;;;;27.77;34.66;101518.41;5075170;27;45511;-72
2022/08/09 11:20:08;;;;;;;;;10.00;10.00;;;;;27.79;34.88;101521.81;5076471;27;46401;-70